Time;durP1;ratioP1;P1;durP2;ratioP2;P2;SDS_P1;SDS_P2;PMS_P1;PMS_P2;Temp;Humidity;BMP_temperature;BMP_pressure;BME280_temperature;BME280_humidity;BME280_pressure;Samples;Min_cycle;Max_cycle;Signal;HPM_P1;HPM_P2
2021/06/25 00:02:06;;;;;;;;;;;12.50;99.90;;;;;;5096188;28;20013;-72
2021/06/25 00:04:31;;;;;;;;;;;12.60;99.90;;;;;;5095855;28;19912;-71
2021/06/25 00:06:56;;;;;;;;;;;12.50;99.90;;;;;;5096308;28;20359;-72
2021/06/25 00:09:22;;;;;;;;;;;12.50;99.90;;;;;;5096265;28;20245;-72
2021/06/25 00:11:47;;;;;;;;;;;12.50;99.90;;;;;;5095539;28;19944;-72
2021/06/25 00:14:13;;;;;;;;;;;12.50;99.90;;;;;;5096412;28;20336;-70
2021/06/25 00:16:39;;;;;;;;;;;12.50;99.90;;;;;;5095925;28;20320;-71
2021/06/25 00:19:04;;;;;;;;;;;12.50;99.90;;;;;;5095971;28;19915;-71
2021/06/25 00:21:30;;;;;;;;;;;12.50;99.90;;;;;;5095648;28;19916;-71
2021/06/25 00:23:55;;;;;;;;;;;12.50;99.90;;;;;;5094273;28;19913;-72
2021/06/25 00:26:21;;;;;;;;;;;12.50;99.90;;;;;;5095932;28;19934;-71
2021/06/25 00:28:46;;;;;;;;;;;12.50;99.90;;;;;;5095987;28;19912;-72
2021/06/25 00:31:12;;;;;;;;;;;12.50;99.90;;;;;;5095397;28;20419;-71
2021/06/25 00:33:37;;;;;;;;;;;12.50;99.90;;;;;;5094590;28;20224;-71
2021/06/25 00:36:03;;;;;;;;;;;12.40;99.90;;;;;;5096107;28;19908;-71
2021/06/25 00:38:28;;;;;;;;;;;12.40;99.90;;;;;;5095004;28;19961;-71
2021/06/25 00:40:54;;;;;;;;;;;12.40;99.90;;;;;;5095766;28;19919;-71
2021/06/25 00:43:19;;;;;;;;;;;12.40;99.90;;;;;;5095722;28;19908;-71
2021/06/25 00:45:45;;;;;;;;;;;12.30;99.90;;;;;;5094562;28;19912;-71
2021/06/25 00:48:10;;;;;;;;;;;12.30;99.90;;;;;;5095784;28;20310;-71
2021/06/25 00:50:36;;;;;;;;;;;12.30;99.90;;;;;;5095741;28;19908;-71
2021/06/25 00:53:03;;;;;;;;;;;12.30;99.90;;;;;;5094791;28;19908;-71
2021/06/25 00:55:29;;;;;;;;;;;12.30;99.90;;;;;;5095344;28;19908;-71
2021/06/25 00:57:55;;;;;;;;;;;12.20;99.90;;;;;;5095756;28;19908;-72
2021/06/25 01:00:20;;;;;;;;;;;12.20;99.90;;;;;;5094501;28;20326;-71
2021/06/25 01:02:46;;;;;;;;;;;12.20;99.90;;;;;;5095543;28;20359;-71
2021/06/25 01:05:13;;;;;;;;;;;12.10;99.90;;;;;;5095445;28;20279;-72
2021/06/25 01:07:38;;;;;;;;;;;12.20;99.90;;;;;;5094810;28;20006;-72
2021/06/25 01:10:09;;;;;;;;;;;12.20;99.90;;;;;;5095275;28;19959;-72
2021/06/25 01:12:35;;;;;;;;;;;12.20;99.90;;;;;;5095221;28;19912;-71
2021/06/25 01:15:00;;;;;;;;;;;12.20;99.90;;;;;;5094316;28;19919;-71
2021/06/25 01:17:26;;;;;;;;;;;12.20;99.90;;;;;;5095411;28;19962;-71
2021/06/25 01:19:52;;;;;;;;;;;12.20;99.90;;;;;;5095117;28;19912;-71
2021/06/25 01:22:22;;;;;;;;;;;12.20;99.90;;;;;;5094314;28;20241;-71
2021/06/25 01:24:47;;;;;;;;;;;12.20;99.90;;;;;;5095016;28;19915;-71
2021/06/25 01:27:13;;;;;;;;;;;12.20;99.90;;;;;;5094023;28;19908;-70
2021/06/25 01:29:39;;;;;;;;;;;12.10;99.90;;;;;;5094844;28;19912;-72
2021/06/25 01:32:05;;;;;;;;;;;12.10;99.90;;;;;;5094809;28;20014;-72
2021/06/25 01:34:30;;;;;;;;;;;12.10;99.90;;;;;;5093578;28;19934;-72
2021/06/25 01:36:56;;;;;;;;;;;12.10;99.90;;;;;;5094599;28;19916;-72
2021/06/25 01:39:21;;;;;;;;;;;12.10;99.90;;;;;;5094666;28;19908;-72
2021/06/25 01:41:47;;;;;;;;;;;12.10;99.90;;;;;;5093574;28;19916;-72
2021/06/25 01:44:12;;;;;;;;;;;12.10;99.90;;;;;;5094536;28;19939;-72
2021/06/25 01:46:41;;;;;;;;;;;12.10;99.90;;;;;;5094220;28;20368;-72
2021/06/25 01:49:06;;;;;;;;;;;12.10;99.90;;;;;;5093672;28;19908;-72
2021/06/25 01:51:35;;;;;;;;;;;12.10;99.90;;;;;;5094464;28;20292;-72
2021/06/25 01:54:00;;;;;;;;;;;12.20;99.90;;;;;;5094303;28;19908;-72
2021/06/25 01:56:26;;;;;;;;;;;12.20;99.90;;;;;;5093362;28;19914;-72
2021/06/25 01:58:51;;;;;;;;;;;12.20;99.90;;;;;;5094034;28;19931;-72
2021/06/25 02:01:17;;;;;;;;;;;12.30;99.90;;;;;;5094176;28;20360;-72
2021/06/25 02:03:43;;;;;;;;;;;12.30;99.90;;;;;;5093498;28;19908;-71
2021/06/25 02:06:10;;;;;;;;;;;12.40;99.90;;;;;;5094215;28;19908;-72
2021/06/25 02:08:36;;;;;;;;;;;12.40;99.90;;;;;;5094194;28;19955;-73
2021/06/25 02:11:01;;;;;;;;;;;12.40;99.90;;;;;;5093042;28;19948;-72
2021/06/25 02:13:27;;;;;;;;;;;12.50;99.90;;;;;;5094058;28;19973;-72
2021/06/25 02:15:53;;;;;;;;;;;12.50;99.90;;;;;;5093803;28;19908;-72
2021/06/25 02:18:18;;;;;;;;;;;12.50;99.90;;;;;;5093176;28;19977;-72
2021/06/25 02:20:44;;;;;;;;;;;12.60;99.90;;;;;;5093881;28;19916;-71
2021/06/25 02:23:10;;;;;;;;;;;12.60;99.90;;;;;;5093880;28;19915;-72
2021/06/25 02:25:35;;;;;;;;;;;12.70;99.90;;;;;;5092941;28;19919;-71
2021/06/25 02:28:01;;;;;;;;;;;12.70;99.90;;;;;;5093881;28;19908;-73
2021/06/25 02:30:26;;;;;;;;;;;12.80;99.90;;;;;;5092962;28;20348;-72
2021/06/25 02:32:52;;;;;;;;;;;12.80;99.90;;;;;;5093657;28;19908;-71
2021/06/25 02:35:17;;;;;;;;;;;12.80;99.90;;;;;;5093530;28;19908;-71
2021/06/25 02:37:43;;;;;;;;;;;12.80;99.90;;;;;;5092911;28;19954;-71
2021/06/25 02:40:09;;;;;;;;;;;12.80;99.90;;;;;;5093554;28;19990;-71
2021/06/25 02:42:35;;;;;;;;;;;12.80;99.90;;;;;;5093891;28;20360;-71
2021/06/25 02:45:00;;;;;;;;;;;12.80;99.90;;;;;;5092288;28;19915;-72
2021/06/25 02:47:26;;;;;;;;;;;12.80;99.90;;;;;;5093141;28;20314;-71
2021/06/25 02:49:51;;;;;;;;;;;12.80;99.90;;;;;;5093339;28;20267;-72
2021/06/25 02:52:17;;;;;;;;;;;12.90;99.90;;;;;;5092653;28;19908;-72
2021/06/25 02:54:42;;;;;;;;;;;12.90;99.90;;;;;;5093377;28;20079;-72
2021/06/25 02:57:08;;;;;;;;;;;12.90;99.90;;;;;;5093304;28;20367;-72
2021/06/25 02:59:33;;;;;;;;;;;12.90;99.90;;;;;;5092906;28;19915;-72
2021/06/25 03:01:59;;;;;;;;;;;13.00;99.90;;;;;;5093340;28;20356;-72
2021/06/25 03:04:24;;;;;;;;;;;13.00;99.90;;;;;;5093291;28;19919;-72
2021/06/25 03:06:50;;;;;;;;;;;13.00;99.90;;;;;;5092410;28;19908;-72
2021/06/25 03:09:15;;;;;;;;;;;13.00;99.90;;;;;;5093249;28;19965;-72
2021/06/25 03:11:41;;;;;;;;;;;13.00;99.90;;;;;;5093153;28;19909;-72
2021/06/25 03:14:06;;;;;;;;;;;13.00;99.90;;;;;;5092353;28;19908;-72
2021/06/25 03:16:32;;;;;;;;;;;13.10;99.90;;;;;;5092943;28;20390;-72
2021/06/25 03:18:57;;;;;;;;;;;13.10;99.90;;;;;;5093066;28;20280;-72
2021/06/25 03:21:23;;;;;;;;;;;13.10;99.90;;;;;;5092192;28;19969;-71
2021/06/25 03:23:48;;;;;;;;;;;13.10;99.90;;;;;;5092928;28;20279;-72
2021/06/25 03:26:14;;;;;;;;;;;13.10;99.90;;;;;;5092806;28;20007;-71
2021/06/25 03:28:40;;;;;;;;;;;13.10;99.90;;;;;;5092432;28;20333;-72
2021/06/25 03:31:05;;;;;;;;;;;13.20;99.90;;;;;;5092917;28;19919;-71
2021/06/25 03:33:31;;;;;;;;;;;13.20;99.90;;;;;;5093056;28;20040;-71
2021/06/25 03:35:56;;;;;;;;;;;13.20;99.90;;;;;;5092274;28;19920;-72
2021/06/25 03:38:22;;;;;;;;;;;13.20;99.90;;;;;;5092767;28;20006;-71
2021/06/25 03:40:47;;;;;;;;;;;13.30;99.90;;;;;;5092013;28;19920;-71
2021/06/25 03:43:13;;;;;;;;;;;13.30;99.90;;;;;;5092602;28;19912;-71
2021/06/25 03:45:38;;;;;;;;;;;13.30;99.90;;;;;;5092736;28;19915;-71
2021/06/25 03:48:04;;;;;;;;;;;13.30;99.90;;;;;;5091961;28;19908;-71
2021/06/25 03:50:30;;;;;;;;;;;13.40;99.90;;;;;;5092966;28;19908;-71
2021/06/25 03:52:55;;;;;;;;;;;13.40;99.90;;;;;;5092813;28;19912;-72
2021/06/25 03:55:21;;;;;;;;;;;13.40;99.90;;;;;;5091953;28;19908;-71
2021/06/25 03:57:46;;;;;;;;;;;13.50;99.90;;;;;;5095152;28;19990;-71
2021/06/25 04:00:17;;;;;;;;;;;13.50;99.90;;;;;;5096392;28;19908;-71
2021/06/25 04:02:43;;;;;;;;;;;13.60;99.90;;;;;;5095696;28;19940;-71
2021/06/25 04:05:09;;;;;;;;;;;13.60;99.90;;;;;;5096233;28;19961;-71
2021/06/25 04:07:35;;;;;;;;;;;13.60;99.90;;;;;;5096438;28;20402;-70
2021/06/25 04:10:01;;;;;;;;;;;13.60;99.90;;;;;;5095515;28;19931;-71
2021/06/25 04:12:27;;;;;;;;;;;13.60;99.90;;;;;;5096377;28;19942;-71
2021/06/25 04:14:53;;;;;;;;;;;13.60;99.90;;;;;;5096397;28;19908;-71
2021/06/25 04:17:18;;;;;;;;;;;13.60;99.90;;;;;;5095572;28;20436;-71
2021/06/25 04:19:44;;;;;;;;;;;13.60;99.90;;;;;;5096084;28;19908;-72
2021/06/25 04:22:09;;;;;;;;;;;13.60;99.90;;;;;;5096142;28;19922;-71
2021/06/25 04:24:34;;;;;;;;;;;13.70;99.90;;;;;;5095192;28;19916;-71
2021/06/25 04:27:00;;;;;;;;;;;13.70;99.90;;;;;;5096227;28;19931;-71
2021/06/25 04:29:25;;;;;;;;;;;13.70;99.90;;;;;;5096146;28;20000;-71
2021/06/25 04:31:53;;;;;;;;;;;13.70;99.90;;;;;;5095275;28;19908;-71
2021/06/25 04:34:19;;;;;;;;;;;13.70;99.90;;;;;;5095578;28;20343;-71
2021/06/25 04:36:45;;;;;;;;;;;13.70;99.90;;;;;;5095958;28;19912;-71
2021/06/25 04:39:10;;;;;;;;;;;13.80;99.90;;;;;;5094957;28;20391;-71
2021/06/25 04:41:36;;;;;;;;;;;13.80;99.90;;;;;;5095756;28;19916;-71
2021/06/25 04:44:02;;;;;;;;;;;13.80;99.90;;;;;;5095047;28;19950;-72
2021/06/25 04:46:28;;;;;;;;;;;13.90;99.90;;;;;;5095420;28;19927;-72
2021/06/25 04:48:54;;;;;;;;;;;13.90;99.90;;;;;;5095605;28;19908;-72
2021/06/25 04:51:19;;;;;;;;;;;14.00;99.90;;;;;;5094882;28;19934;-71
2021/06/25 04:53:45;;;;;;;;;;;14.00;99.90;;;;;;5095311;28;20023;-72
2021/06/25 04:56:10;;;;;;;;;;;14.00;99.90;;;;;;5095387;28;19908;-71
2021/06/25 04:58:36;;;;;;;;;;;14.10;99.90;;;;;;5094442;28;20011;-71
2021/06/25 05:01:01;;;;;;;;;;;14.20;99.90;;;;;;5095295;28;20015;-71
2021/06/25 05:03:27;;;;;;;;;;;14.20;99.90;;;;;;5095105;28;19937;-71
2021/06/25 05:05:52;;;;;;;;;;;14.20;99.90;;;;;;5094409;28;19953;-71
2021/06/25 05:08:18;;;;;;;;;;;14.30;99.90;;;;;;5094135;28;19942;-71
2021/06/25 05:10:43;;;;;;;;;;;14.30;99.90;;;;;;5095278;28;19994;-71
2021/06/25 05:13:10;;;;;;;;;;;14.40;99.90;;;;;;5094841;28;19961;-71
2021/06/25 05:15:36;;;;;;;;;;;14.40;99.90;;;;;;5095181;28;20303;-71
2021/06/25 05:18:11;;;;;;;;;;;14.50;99.90;;;;;;5095133;28;19934;-72
2021/06/25 05:20:37;;;;;;;;;;;14.60;99.90;;;;;;5094123;28;20280;-71
2021/06/25 05:23:02;;;;;;;;;;;14.60;99.90;;;;;;5094858;28;19919;-72
2021/06/25 05:25:28;;;;;;;;;;;14.70;99.90;;;;;;5095040;28;19908;-72
2021/06/25 05:27:53;;;;;;;;;;;14.80;99.90;;;;;;5093948;28;19951;-72
2021/06/25 05:30:19;;;;;;;;;;;14.90;99.90;;;;;;5094960;28;19915;-72
2021/06/25 05:32:44;;;;;;;;;;;15.00;99.90;;;;;;5094693;28;19909;-70
2021/06/25 05:35:10;;;;;;;;;;;15.10;99.90;;;;;;5093770;28;19915;-71
2021/06/25 05:37:36;;;;;;;;;;;15.10;99.90;;;;;;5094408;28;19950;-72
2021/06/25 05:40:02;;;;;;;;;;;15.20;99.90;;;;;;5094663;28;20330;-72
2021/06/25 05:42:27;;;;;;;;;;;15.40;99.90;;;;;;5093813;28;19916;-72
2021/06/25 05:44:53;;;;;;;;;;;15.50;99.90;;;;;;5094371;28;20318;-72
2021/06/25 05:47:19;;;;;;;;;;;15.50;99.90;;;;;;5093092;28;19964;-72
2021/06/25 05:49:44;;;;;;;;;;;15.60;99.90;;;;;;5094168;28;19919;-71
2021/06/25 05:52:09;;;;;;;;;;;15.70;99.90;;;;;;5094040;28;19923;-71
2021/06/25 05:54:35;;;;;;;;;;;15.70;99.90;;;;;;5093449;28;19988;-72
2021/06/25 05:57:00;;;;;;;;;;;15.70;99.90;;;;;;5094378;28;19908;-71
2021/06/25 05:59:26;;;;;;;;;;;15.80;99.90;;;;;;5094411;28;19909;-71
2021/06/25 06:01:51;;;;;;;;;;;15.80;99.90;;;;;;5093340;28;20003;-71
2021/06/25 06:04:17;;;;;;;;;;;15.70;99.90;;;;;;5094058;28;19915;-72
2021/06/25 06:06:42;;;;;;;;;;;15.70;99.90;;;;;;5094227;28;19914;-72
2021/06/25 06:09:08;;;;;;;;;;;15.70;99.90;;;;;;5093474;28;20438;-72
2021/06/25 06:11:33;;;;;;;;;;;15.70;99.90;;;;;;5094262;28;20307;-72
2021/06/25 06:13:59;;;;;;;;;;;15.80;99.90;;;;;;5094077;28;20325;-72
2021/06/25 06:16:24;;;;;;;;;;;15.80;99.90;;;;;;5093267;28;19915;-71
2021/06/25 06:18:50;;;;;;;;;;;15.80;99.90;;;;;;5093989;28;19935;-72
2021/06/25 06:21:19;;;;;;;;;;;15.80;99.90;;;;;;5093958;28;20053;-72
2021/06/25 06:32:16;;;;;;;;;;;16.10;99.90;;;;;;5093872;28;19961;-71
2021/06/25 06:34:43;;;;;;;;;;;16.20;99.90;;;;;;5093664;28;19916;-71
2021/06/25 06:37:09;;;;;;;;;;;16.20;99.90;;;;;;5093023;28;19908;-71
2021/06/25 06:39:34;;;;;;;;;;;16.10;99.90;;;;;;5093373;28;19915;-73
2021/06/25 06:42:00;;;;;;;;;;;16.20;99.90;;;;;;5093458;28;19916;-73
2021/06/25 06:44:26;;;;;;;;;;;16.20;99.90;;;;;;5093119;28;19999;-72
2021/06/25 06:46:51;;;;;;;;;;;16.20;99.90;;;;;;5093302;28;19963;-72
2021/06/25 06:49:17;;;;;;;;;;;16.30;99.90;;;;;;5093593;28;19916;-71
2021/06/25 06:51:43;;;;;;;;;;;16.40;99.90;;;;;;5092524;28;20382;-72
2021/06/25 06:54:08;;;;;;;;;;;16.60;99.90;;;;;;5093505;28;20002;-72
2021/06/25 06:56:34;;;;;;;;;;;16.70;99.90;;;;;;5093542;28;19999;-73
2021/06/25 06:59:00;;;;;;;;;;;16.80;99.90;;;;;;5092772;28;20007;-72
2021/06/25 07:01:26;;;;;;;;;;;16.90;99.90;;;;;;5093489;28;19927;-72
2021/06/25 07:03:52;;;;;;;;;;;17.00;99.90;;;;;;5093414;28;19915;-72
2021/06/25 07:06:18;;;;;;;;;;;17.00;99.90;;;;;;5092653;28;19909;-71
2021/06/25 07:08:43;;;;;;;;;;;17.10;99.90;;;;;;5093354;28;20360;-71
2021/06/25 07:11:09;;;;;;;;;;;17.10;99.90;;;;;;5093374;28;19908;-71
2021/06/25 07:13:34;;;;;;;;;;;17.20;99.90;;;;;;5092453;28;19943;-72
2021/06/25 07:16:00;;;;;;;;;;;17.30;99.90;;;;;;5093614;28;19951;-71
2021/06/25 07:18:26;;;;;;;;;;;17.30;99.90;;;;;;5093147;28;19918;-71
2021/06/25 07:20:51;;;;;;;;;;;17.50;99.90;;;;;;5092411;28;19916;-72
2021/06/25 07:23:17;;;;;;;;;;;17.60;99.90;;;;;;5093234;28;20332;-72
2021/06/25 07:25:42;;;;;;;;;;;17.70;99.90;;;;;;5092497;28;19916;-72
2021/06/25 07:28:08;;;;;;;;;;;17.70;99.90;;;;;;5093392;28;19908;-71
2021/06/25 07:30:33;;;;;;;;;;;17.80;99.90;;;;;;5093596;28;19995;-71
2021/06/25 07:32:59;;;;;;;;;;;17.90;99.90;;;;;;5095370;28;19955;-72
2021/06/25 07:35:24;;;;;;;;;;;18.00;99.90;;;;;;5097190;28;19955;-72
2021/06/25 07:37:50;;;;;;;;;;;18.10;99.90;;;;;;5097107;28;20330;-72
2021/06/25 07:40:16;;;;;;;;;;;18.30;99.90;;;;;;5095967;28;19912;-72
2021/06/25 07:42:42;;;;;;;;;;;18.30;99.90;;;;;;5097060;28;19916;-72
2021/06/25 07:45:09;;;;;;;;;;;18.40;99.90;;;;;;5096965;28;19908;-73
2021/06/25 07:47:38;;;;;;;;;;;18.60;99.90;;;;;;5095961;28;20448;-73
2021/06/25 07:50:05;;;;;;;;;;;18.70;99.90;;;;;;5096927;28;20405;-72
2021/06/25 07:52:30;;;;;;;;;;;18.80;99.90;;;;;;5096694;28;20383;-72
2021/06/25 07:54:56;;;;;;;;;;;18.90;99.90;;;;;;5095795;28;19908;-72
2021/06/25 07:57:21;;;;;;;;;;;19.00;99.90;;;;;;5096796;28;20253;-72
2021/06/25 07:59:47;;;;;;;;;;;19.20;99.90;;;;;;5096648;28;20436;-72
2021/06/25 08:02:12;;;;;;;;;;;19.30;99.90;;;;;;5095864;28;20344;-72
2021/06/25 08:04:38;;;;;;;;;;;19.40;99.90;;;;;;5096587;28;19931;-71
2021/06/25 08:07:03;;;;;;;;;;;19.50;99.90;;;;;;5096542;28;19998;-71
2021/06/25 08:09:29;;;;;;;;;;;19.70;99.90;;;;;;5095549;28;19916;-72
2021/06/25 08:11:54;;;;;;;;;;;19.80;99.90;;;;;;5096192;28;19912;-71
2021/06/25 08:14:20;;;;;;;;;;;19.80;99.90;;;;;;5096605;28;19914;-71
2021/06/25 08:16:45;;;;;;;;;;;19.90;99.90;;;;;;5095562;28;20228;-72
2021/06/25 08:19:10;;;;;;;;;;;20.00;99.90;;;;;;5096377;28;19955;-71
2021/06/25 08:21:36;;;;;;;;;;;20.00;99.90;;;;;;5096111;28;19916;-71
2021/06/25 08:24:01;;;;;;;;;;;20.00;99.90;;;;;;5095399;28;19947;-73
2021/06/25 08:26:28;;;;;;;;;;;20.10;99.90;;;;;;5096449;28;19908;-72
2021/06/25 08:28:54;;;;;;;;;;;20.30;99.90;;;;;;5096216;28;20352;-72
2021/06/25 08:31:20;;;;;;;;;;;20.30;99.90;;;;;;5095377;28;20019;-74
2021/06/25 08:33:45;;;;;;;;;;;20.40;99.90;;;;;;5095894;28;19959;-71
2021/06/25 08:36:11;;;;;;;;;;;20.50;99.90;;;;;;5095095;28;19915;-71
2021/06/25 08:38:36;;;;;;;;;;;20.50;99.90;;;;;;5095886;28;20416;-71
2021/06/25 08:41:02;;;;;;;;;;;20.50;99.90;;;;;;5095631;28;20435;-72
2021/06/25 08:43:27;;;;;;;;;;;20.50;99.90;;;;;;5094064;28;19995;-73
2021/06/25 08:45:53;;;;;;;;;;;20.60;99.90;;;;;;5095581;28;19909;-72
2021/06/25 08:48:18;;;;;;;;;;;20.60;99.90;;;;;;5095715;28;19928;-72
2021/06/25 08:50:49;;;;;;;;;;;20.70;99.90;;;;;;5094927;28;19908;-72
2021/06/25 08:53:14;;;;;;;;;;;20.80;99.90;;;;;;5095674;28;19953;-72
2021/06/25 08:55:43;;;;;;;;;;;21.00;99.90;;;;;;5095677;28;20356;-72
2021/06/25 08:58:21;;;;;;;;;;;21.30;99.90;;;;;;5094421;28;20390;-72
2021/06/25 09:00:48;;;;;;;;;;;21.40;99.90;;;;;;5095349;28;20015;-72
2021/06/25 09:03:23;;;;;;;;;;;21.50;99.90;;;;;;5095257;28;19914;-72
2021/06/25 09:05:49;;;;;;;;;;;21.60;99.90;;;;;;5094418;28;19912;-73
2021/06/25 09:08:28;;;;;;;;;;;21.60;99.90;;;;;;5095176;28;19961;-72
2021/06/25 09:10:56;;;;;;;;;;;21.50;99.90;;;;;;5095308;28;19977;-72
2021/06/25 09:13:51;;;;;;;;;;;21.40;99.90;;;;;;5094527;28;19916;-72
2021/06/25 09:16:24;;;;;;;;;;;21.30;99.90;;;;;;5077314;28;19919;-74
2021/06/25 09:18:55;;;;;;;;;;;21.20;99.90;;;;;;5094155;28;19920;-71
2021/06/25 09:21:21;;;;;;;;;;;21.20;99.90;;;;;;5094968;28;19923;-72
2021/06/25 09:23:46;;;;;;;;;;;21.30;99.90;;;;;;5094853;28;20018;-72
2021/06/25 09:26:12;;;;;;;;;;;21.40;99.90;;;;;;5094136;28;19915;-73
2021/06/25 09:28:39;;;;;;;;;;;21.60;99.90;;;;;;5094975;28;20344;-72
2021/06/25 09:31:16;;;;;;;;;;;21.70;99.90;;;;;;5094955;28;19975;-73
2021/06/25 09:33:41;;;;;;;;;;;21.70;99.90;;;;;;5094073;28;20415;-72
2021/06/25 09:36:07;;;;;;;;;;;21.60;99.90;;;;;;5094819;28;19908;-72
2021/06/25 09:38:39;;;;;;;;;;;21.60;99.90;;;;;;5094647;28;19974;-72
2021/06/25 09:41:20;;;;;;;;;;;21.60;99.90;;;;;;5093797;28;19916;-72
2021/06/25 09:44:02;;;;;;;;;;;21.60;99.90;;;;;;5094700;28;19912;-72
2021/06/25 09:46:32;;;;;;;;;;;21.70;99.90;;;;;;5093491;28;19920;-72
2021/06/25 09:49:05;;;;;;;;;;;21.70;99.90;;;;;;5094460;28;19955;-72
2021/06/25 09:51:31;;;;;;;;;;;21.50;99.90;;;;;;5094497;28;20007;-72
2021/06/25 09:54:04;;;;;;;;;;;21.40;99.90;;;;;;5093479;28;19977;-72
2021/06/25 09:56:30;;;;;;;;;;;21.10;99.90;;;;;;5094291;28;19915;-71
2021/06/25 09:59:21;;;;;;;;;;;21.00;99.90;;;;;;5094319;28;20057;-72
2021/06/25 10:01:47;;;;;;;;;;;20.90;99.90;;;;;;5093219;28;19955;-71
2021/06/25 10:04:12;;;;;;;;;;;20.80;99.90;;;;;;5094140;28;20019;-72
2021/06/25 10:06:38;;;;;;;;;;;20.70;99.90;;;;;;5094345;28;19915;-72
2021/06/25 10:09:04;;;;;;;;;;;20.60;99.90;;;;;;5093419;28;20416;-72
2021/06/25 10:11:31;;;;;;;;;;;20.50;99.90;;;;;;5093967;28;19935;-71
2021/06/25 10:13:58;;;;;;;;;;;20.40;99.90;;;;;;5086801;28;19999;-71
2021/06/25 10:16:23;;;;;;;;;;;20.40;99.90;;;;;;5088030;28;19915;-72
2021/06/25 10:18:53;;;;;;;;;;;20.30;99.90;;;;;;5094064;28;20321;-73
2021/06/25 10:21:19;;;;;;;;;;;20.30;99.90;;;;;;5093642;28;19941;-73
2021/06/25 10:23:49;;;;;;;;;;;20.30;99.90;;;;;;5093074;28;20303;-72
2021/06/25 10:26:15;;;;;;;;;;;20.50;99.90;;;;;;5093842;28;19921;-73
2021/06/25 10:28:41;;;;;;;;;;;20.60;99.90;;;;;;5092903;28;20297;-72
2021/06/25 10:31:08;;;;;;;;;;;20.70;99.90;;;;;;5093561;28;19946;-72
2021/06/25 10:33:35;;;;;;;;;;;20.70;99.90;;;;;;5082581;28;19912;-72
2021/06/25 10:36:11;;;;;;;;;;;20.70;99.90;;;;;;5083565;28;19931;-72
2021/06/25 10:38:38;;;;;;;;;;;20.70;99.90;;;;;;5076224;28;19908;-72
2021/06/25 10:41:04;;;;;;;;;;;20.80;99.90;;;;;;5089577;28;20429;-72
2021/06/25 10:43:44;;;;;;;;;;;20.90;99.90;;;;;;5080230;28;19908;-73
2021/06/25 10:46:28;;;;;;;;;;;21.00;99.90;;;;;;5092436;28;19919;-72
2021/06/25 10:48:55;;;;;;;;;;;21.00;99.90;;;;;;5092752;28;19986;-72
2021/06/25 10:51:25;;;;;;;;;;;21.00;99.90;;;;;;5077278;28;19908;-69
2021/06/25 10:54:10;;;;;;;;;;;20.90;99.90;;;;;;5092649;28;19990;-71
2021/06/25 10:56:36;;;;;;;;;;;20.90;99.90;;;;;;5092189;28;19913;-72
2021/06/25 10:59:19;;;;;;;;;;;20.80;99.90;;;;;;5091989;28;19908;-72
2021/06/25 11:01:48;;;;;;;;;;;20.80;99.90;;;;;;5092536;28;19920;-72
2021/06/25 11:04:46;;;;;;;;;;;20.60;99.90;;;;;;5091732;28;19914;-71
2021/06/25 11:07:38;;;;;;;;;;;20.50;99.90;;;;;;5050928;28;19916;-72
2021/06/25 11:10:05;;;;;;;;;;;20.20;99.90;;;;;;5088793;28;19908;-68
2021/06/25 11:12:32;;;;;;;;;;;20.10;99.90;;;;;;5091393;28;19962;-70
2021/06/25 11:15:03;;;;;;;;;;;19.90;99.90;;;;;;5092312;28;19908;-71
2021/06/25 11:17:49;;;;;;;;;;;19.80;99.90;;;;;;5092356;28;19916;-71
2021/06/25 11:20:18;;;;;;;;;;;19.70;99.90;;;;;;5092434;28;19915;-71
2021/06/25 11:22:51;;;;;;;;;;;19.50;99.90;;;;;;5091889;28;19923;-71
2021/06/25 11:25:31;;;;;;;;;;;19.50;99.90;;;;;;5091536;28;20026;-71
2021/06/25 11:28:11;;;;;;;;;;;19.40;99.90;;;;;;5092360;28;19915;-72
2021/06/25 11:30:57;;;;;;;;;;;19.30;99.90;;;;;;5091785;28;19954;-72
2021/06/25 11:33:24;;;;;;;;;;;19.20;99.90;;;;;;5077090;28;19912;-73
2021/06/25 11:36:39;;;;;;;24.75;20.02;;;19.10;99.90;;;;;;5099349;27;20335;-73
2021/06/25 11:39:04;;;;;;;23.48;18.58;;;19.20;99.90;;;;;;5070072;28;20388;-73
2021/06/25 11:41:35;;;;;;;25.60;17.45;;;19.20;99.90;;;;;;5075236;28;20032;-73
2021/06/25 11:44:14;;;;;;;23.88;16.80;;;19.20;99.90;;;;;;5072907;28;20032;-74
2021/06/25 11:46:41;;;;;;;26.02;19.90;;;19.20;99.90;;;;;;5068577;28;20445;-73
2021/06/25 11:49:07;;;;;;;27.42;18.73;;;19.20;99.90;;;;;;5071975;28;20028;-73
2021/06/25 11:51:40;;;;;;;20.58;15.55;;;19.30;99.90;;;;;;5072327;28;20431;-74
2021/06/25 11:54:09;;;;;;;22.60;16.02;;;19.30;99.90;;;;;;5068507;28;20104;-74
2021/06/25 11:56:36;;;;;;;20.20;16.55;;;19.30;99.90;;;;;;5068434;28;20380;-73
2021/06/25 11:59:09;;;;;;;19.65;14.50;;;19.40;99.90;;;;;;5069534;28;20021;-74
2021/06/25 12:02:07;;;;;;;17.38;15.35;;;19.40;99.90;;;;;;5067798;28;20045;-73
2021/06/25 12:04:43;;;;;;;21.48;14.68;;;19.60;99.90;;;;;;5061398;28;20032;-72
2021/06/25 12:07:11;;;;;;;18.30;15.05;;;19.80;99.90;;;;;;5082332;28;20021;-73
2021/06/25 12:09:48;;;;;;;17.10;14.00;;;20.20;99.90;;;;;;5070390;28;20023;-72
2021/06/25 12:12:26;;;;;;;17.58;14.57;;;20.40;99.90;;;;;;5086752;28;20016;-72
2021/06/25 12:14:55;;;;;;;13.40;12.10;;;20.60;99.90;;;;;;5072465;28;20029;-74
2021/06/25 12:17:21;;;;;;;13.93;12.18;;;20.60;99.90;;;;;;5068130;28;20029;-72
2021/06/25 12:19:59;;;;;;;16.92;12.27;;;20.70;99.90;;;;;;5068069;28;20023;-72
2021/06/25 12:22:25;;;;;;;22.85;16.55;;;20.80;99.90;;;;;;5070003;28;20035;-74
2021/06/25 12:24:53;;;;;;;29.10;17.63;;;20.90;99.90;;;;;;5068022;28;20020;-74
2021/06/25 12:27:37;;;;;;;28.42;18.60;;;21.00;99.90;;;;;;5068643;28;20484;-73
2021/06/25 12:30:14;;;;;;;26.65;18.92;;;21.10;99.90;;;;;;5083841;28;20020;-74
2021/06/25 12:32:40;;;;;;;32.88;21.40;;;21.20;99.90;;;;;;5067680;28;20533;-73
2021/06/25 12:35:06;;;;;;;28.67;20.70;;;21.20;99.90;;;;;;5084097;28;20078;-74
2021/06/25 12:37:53;;;;;;;35.15;22.83;;;21.40;99.90;;;;;;5090943;28;20413;-74
2021/06/25 12:40:36;;;;;;;27.75;21.17;;;21.40;99.90;;;;;;5106161;28;20476;-73
2021/06/25 12:43:02;;;;;;;30.58;21.77;;;21.30;99.90;;;;;;5087315;28;20027;-74
2021/06/25 12:45:37;;;;;;;30.45;22.38;;;21.10;99.90;;;;;;5091439;28;20029;-73
2021/06/25 12:48:15;;;;;;;28.30;18.88;;;20.90;99.90;;;;;;5074925;28;20017;-72
2021/06/25 12:50:43;;;;;;;24.88;17.20;;;20.70;99.90;;;;;;5073174;28;20036;-72
2021/06/25 12:53:23;;;;;;;22.30;14.75;;;20.60;99.90;;;;;;5079483;28;20103;-73
2021/06/25 12:55:50;;;;;;;23.65;14.55;;;20.60;99.90;;;;;;5074288;28;20078;-73
2021/06/25 12:58:16;;;;;;;20.13;14.25;;;20.70;99.90;;;;;;5073194;28;20542;-73
2021/06/25 13:00:44;;;;;;;25.13;16.15;;;20.60;99.90;;;;;;5082445;28;20028;-72
2021/06/25 13:03:10;;;;;;;24.95;18.67;;;20.50;99.90;;;;;;5080095;28;20021;-73
2021/06/25 13:05:37;;;;;;;29.42;20.35;;;20.40;99.90;;;;;;5092816;28;20106;-73
2021/06/25 13:08:18;;;;;;;26.15;18.50;;;20.30;99.90;;;;;;5094229;28;20077;-73
2021/06/25 13:10:45;;;;;;;31.35;21.08;;;20.20;99.90;;;;;;5086989;28;20048;-73
2021/06/25 13:13:22;;;;;;;33.97;19.70;;;20.10;99.90;;;;;;5086247;28;20032;-73
2021/06/25 13:16:02;;;;;;;31.45;19.88;;;20.10;99.90;;;;;;5093449;28;20034;-73
2021/06/25 13:18:37;;;;;;;34.17;20.60;;;20.20;99.90;;;;;;5093164;28;20043;-73
2021/06/25 13:21:27;;;;;;;26.88;18.58;;;20.30;99.90;;;;;;5088917;28;20262;-73
2021/06/25 13:24:13;;;;;;;29.13;17.13;;;20.20;99.90;;;;;;5091184;28;20020;-73
2021/06/25 13:27:00;;;;;;;24.35;15.43;;;20.10;99.90;;;;;;5074719;28;20032;-70
2021/06/25 13:29:46;;;;;;;21.92;15.07;;;20.10;99.90;;;;;;5087801;28;20081;-72
2021/06/25 13:32:14;;;;;;;18.40;14.82;;;20.20;99.90;;;;;;5088560;28;20109;-68
2021/06/25 13:35:07;;;;;;;16.33;13.90;;;20.50;99.90;;;;;;5077688;28;20454;-68
2021/06/25 13:37:50;;;;;;;19.58;12.75;;;20.80;99.90;;;;;;5074713;28;20111;-73
2021/06/25 13:40:21;;;;;;;21.60;14.90;;;21.20;99.90;;;;;;5085040;28;20442;-72
2021/06/25 13:43:10;;;;;;;23.88;17.15;;;21.50;99.90;;;;;;5086861;28;20023;-71
2021/06/25 13:45:36;;;;;;;23.23;16.88;;;21.60;99.90;;;;;;5072422;28;20021;-72
2021/06/25 13:48:02;;;;;;;29.85;18.55;;;21.60;99.90;;;;;;5073064;28;20538;-72
2021/06/25 13:50:51;;;;;;;28.45;19.10;;;21.50;99.90;;;;;;5072832;28;20066;-72
2021/06/25 13:53:38;;;;;;;24.40;17.95;;;21.30;99.90;;;;;;5072489;28;20024;-74
2021/06/25 13:56:05;;;;;;;23.80;17.67;;;21.10;99.90;;;;;;5072458;28;20071;-72
2021/06/25 13:58:32;;;;;;;26.25;19.02;;;21.10;99.90;;;;;;5071005;28;20020;-74
2021/06/25 14:00:59;;;;;;;25.10;17.65;;;21.00;99.90;;;;;;5072167;28;20036;-72
2021/06/25 14:03:30;;;;;;;25.17;18.33;;;20.90;99.90;;;;;;5073482;28;20020;-72
2021/06/25 14:05:59;;;;;;;;;;;20.80;99.90;;;;;;5072970;28;20028;-72
2021/06/25 14:08:44;;;;;;;19.08;15.70;;;20.70;99.90;;;;;;5070751;28;19905;-72
2021/06/25 14:11:15;;;;;;;24.88;16.10;;;20.70;99.90;;;;;;5073069;28;20027;-74